createdAt,value
2018-04-02T00:02:26.413Z,10.43
2018-04-02T00:04:54.917Z,10.39
2018-04-02T00:07:23.390Z,10.35
2018-04-02T00:09:51.886Z,10.36
2018-04-02T00:12:20.398Z,10.33
2018-04-02T00:14:48.851Z,10.34
2018-04-02T00:17:17.333Z,10.37
2018-04-02T00:19:45.802Z,10.38
2018-04-02T00:22:14.294Z,10.39
2018-04-02T00:24:42.781Z,10.29
2018-04-02T00:27:11.282Z,10.40
2018-04-02T00:29:39.732Z,10.42
2018-04-02T00:32:08.221Z,10.41
2018-04-02T00:34:36.730Z,10.49
2018-04-02T00:37:05.193Z,10.46
2018-04-02T00:39:33.660Z,10.46
2018-04-02T00:42:02.160Z,10.50
2018-04-02T00:44:30.658Z,10.56
2018-04-02T00:46:59.105Z,10.62
2018-04-02T00:49:27.609Z,10.71
2018-04-02T00:51:56.098Z,10.76
2018-04-02T00:54:24.541Z,10.75
2018-04-02T00:56:53.042Z,10.78
2018-04-02T00:59:21.518Z,10.90
2018-04-02T01:01:49.977Z,10.86
2018-04-02T01:04:18.474Z,11.01
2018-04-02T01:06:46.969Z,11.03
2018-04-02T01:09:15.421Z,10.97
2018-04-02T01:11:43.986Z,10.97
2018-04-02T01:14:12.509Z,10.93
2018-04-02T01:16:40.994Z,10.99
2018-04-02T01:19:09.444Z,10.94
2018-04-02T01:21:37.990Z,10.92
2018-04-02T01:24:06.453Z,11.02
2018-04-02T01:26:34.917Z,11.00
2018-04-02T01:29:03.450Z,10.96
2018-04-02T01:31:31.919Z,10.88
2018-04-02T01:34:00.410Z,10.93
2018-04-02T01:36:28.873Z,10.87
2018-04-02T01:38:57.382Z,10.75
2018-04-02T01:41:25.874Z,10.77
2018-04-02T01:43:54.366Z,10.75
2018-04-02T01:46:23.375Z,10.75
2018-04-02T01:48:51.846Z,10.76
2018-04-02T01:51:20.341Z,10.72
2018-04-02T01:53:48.798Z,10.71
2018-04-02T01:56:17.314Z,10.66
2018-04-02T01:58:45.780Z,10.70
2018-04-02T02:01:14.230Z,10.61
2018-04-02T02:03:42.717Z,10.54
2018-04-02T02:06:11.196Z,10.44
2018-04-02T02:08:39.692Z,10.46
2018-04-02T02:11:08.153Z,10.45
2018-04-02T02:13:36.639Z,10.35
2018-04-02T02:16:05.102Z,10.23
2018-04-02T02:18:33.553Z,10.45
2018-04-02T02:21:02.041Z,10.36
2018-04-02T02:23:30.531Z,10.34
2018-04-02T02:25:59.014Z,10.32
2018-04-02T02:28:27.478Z,10.25
2018-04-02T02:30:55.991Z,10.13
2018-04-02T02:33:24.978Z,10.27
2018-04-02T02:35:53.475Z,10.24
2018-04-02T02:38:22.009Z,10.19
2018-04-02T02:40:50.503Z,10.23
2018-04-02T02:43:18.959Z,10.20
2018-04-02T02:45:47.471Z,10.26
2018-04-02T02:48:15.930Z,10.26
2018-04-02T02:50:44.414Z,10.23
2018-04-02T02:53:12.919Z,10.32
2018-04-02T02:55:41.421Z,10.29
2018-04-02T02:58:09.874Z,10.25
2018-04-02T03:00:38.362Z,10.32
2018-04-02T03:03:06.850Z,10.21
2018-04-02T03:05:35.338Z,10.31
2018-04-02T03:08:03.791Z,10.30
2018-04-02T03:10:32.299Z,10.31
2018-04-02T03:13:00.794Z,10.34
2018-04-02T03:15:29.344Z,10.26
2018-04-02T03:17:57.793Z,10.29
2018-04-02T03:20:26.272Z,10.26
2018-04-02T03:22:54.761Z,10.34
2018-04-02T03:25:23.250Z,10.27
2018-04-02T03:27:51.710Z,10.34
2018-04-02T03:30:20.194Z,10.34
2018-04-02T03:32:48.646Z,10.40
2018-04-02T03:35:17.157Z,10.24
2018-04-02T03:37:45.609Z,10.31
2018-04-02T03:40:14.061Z,10.40
2018-04-02T03:42:42.558Z,10.41
2018-04-02T03:45:11.045Z,10.25
2018-04-02T03:47:39.529Z,10.28
2018-04-02T03:50:08.014Z,10.34
2018-04-02T03:52:36.508Z,10.33
2018-04-02T03:55:04.998Z,10.28
2018-04-02T03:57:33.450Z,10.28
2018-04-02T04:00:01.938Z,10.34
2018-04-02T04:02:30.410Z,10.36
2018-04-02T04:04:58.890Z,10.31
2018-04-02T04:07:27.378Z,10.39
2018-04-02T04:09:55.846Z,10.43
2018-04-02T04:12:24.337Z,10.36
2018-04-02T04:14:52.846Z,10.40
2018-04-02T04:17:21.314Z,10.37
2018-04-02T04:19:49.802Z,10.33
2018-04-02T04:22:18.294Z,10.45
2018-04-02T04:24:46.777Z,10.47
2018-04-02T04:27:15.300Z,10.40
2018-04-02T04:29:43.794Z,10.43
2018-04-02T04:32:12.283Z,10.51
2018-04-02T04:34:40.741Z,10.65
2018-04-02T04:37:09.234Z,10.72
2018-04-02T04:39:37.676Z,10.89
2018-04-02T04:42:06.162Z,10.92
2018-04-02T04:44:34.645Z,11.15
2018-04-02T04:47:03.148Z,10.97
2018-04-02T04:49:31.609Z,11.14
2018-04-02T04:52:00.108Z,11.28
2018-04-02T04:54:28.558Z,11.35
2018-04-02T04:56:57.479Z,11.59
2018-04-02T04:59:26.066Z,11.76
2018-04-02T05:01:54.558Z,12.01
2018-04-02T05:04:23.001Z,12.11
2018-04-02T05:06:51.489Z,12.16
2018-04-02T05:09:20.014Z,12.39
2018-04-02T05:11:48.554Z,12.58
2018-04-02T05:14:17.102Z,12.77
2018-04-02T05:16:45.577Z,13.03
2018-04-02T05:19:14.074Z,13.30
2018-04-02T05:21:42.586Z,13.19
2018-04-02T05:24:11.077Z,13.58
2018-04-02T05:26:39.536Z,13.64
2018-04-02T05:29:08.050Z,13.88
2018-04-02T05:31:36.558Z,14.03
2018-04-02T05:34:05.100Z,13.91
2018-04-02T05:36:33.566Z,13.75
2018-04-02T05:39:02.062Z,13.75
2018-04-02T05:41:30.563Z,13.60
2018-04-02T05:43:59.058Z,14.00
2018-04-02T05:46:27.550Z,14.19
2018-04-02T05:48:56.002Z,14.16
2018-04-02T05:51:24.513Z,14.19
2018-04-02T05:53:53.027Z,14.38
2018-04-02T05:56:21.509Z,14.26
2018-04-02T05:58:50.015Z,14.15
2018-04-02T06:01:18.478Z,14.26
2018-04-02T06:03:46.942Z,14.21
2018-04-02T06:06:15.438Z,14.61
2018-04-02T06:08:43.939Z,14.68
2018-04-02T06:11:12.419Z,14.67
2018-04-02T06:13:40.930Z,14.59
2018-04-02T06:16:09.414Z,14.68
2018-04-02T06:18:37.882Z,14.70
2018-04-02T06:21:06.373Z,14.76
2018-04-02T06:23:34.878Z,14.69
2018-04-02T06:26:03.342Z,14.98
2018-04-02T06:28:31.850Z,15.19
2018-04-02T06:31:00.302Z,15.16
2018-04-02T06:33:28.790Z,15.22
2018-04-02T06:35:57.255Z,15.32
2018-04-02T06:38:25.746Z,15.30
2018-04-02T06:40:54.234Z,15.74
2018-04-02T06:43:22.801Z,15.75
2018-04-02T06:45:51.255Z,15.75
2018-04-02T06:48:19.848Z,15.87
2018-04-02T06:50:48.321Z,16.31
2018-04-02T06:53:16.826Z,16.07
2018-04-02T06:55:45.283Z,16.44
2018-04-02T06:58:13.746Z,16.35
2018-04-02T07:00:42.243Z,16.24
2018-04-02T07:03:10.712Z,16.21
2018-04-02T07:05:39.202Z,15.85
2018-04-02T07:08:07.695Z,15.66
2018-04-02T07:10:36.215Z,15.79
2018-04-02T07:13:04.670Z,15.63
2018-04-02T07:15:33.124Z,15.97
2018-04-02T07:18:01.626Z,15.97
2018-04-02T07:20:30.096Z,16.16
2018-04-02T07:22:58.577Z,16.15
2018-04-02T07:25:27.074Z,16.01
2018-04-02T07:27:55.545Z,16.15
2018-04-02T07:30:24.039Z,16.27
2018-04-02T07:32:52.490Z,16.19
2018-04-02T07:35:20.994Z,16.35
2018-04-02T07:37:49.454Z,16.37
2018-04-02T07:40:17.910Z,16.45
2018-04-02T07:42:46.402Z,16.23
2018-04-02T07:45:14.850Z,16.35
2018-04-02T07:47:43.383Z,16.48
2018-04-02T07:50:11.874Z,16.37
2018-04-02T07:52:40.363Z,16.38
2018-04-02T07:55:08.834Z,16.42
2018-04-02T07:57:37.449Z,16.34
2018-04-02T08:00:05.905Z,16.44
2018-04-02T08:02:34.398Z,16.53
2018-04-02T08:05:02.851Z,16.69
2018-04-02T08:07:31.365Z,16.77
2018-04-02T08:09:59.866Z,17.04
2018-04-02T08:12:28.313Z,16.94
2018-04-02T08:14:56.811Z,17.08
2018-04-02T08:17:25.281Z,17.06
2018-04-02T08:19:53.830Z,17.12
2018-04-02T08:22:22.354Z,16.65
2018-04-02T08:24:50.865Z,16.41
2018-04-02T08:27:19.322Z,16.34
2018-04-02T08:29:47.783Z,16.58
2018-04-02T08:32:16.286Z,16.61
2018-04-02T08:34:44.752Z,16.63
2018-04-02T08:37:13.251Z,16.73
2018-04-02T08:39:41.738Z,16.67
2018-04-02T08:42:10.222Z,16.71
2018-04-02T08:44:38.714Z,16.71
2018-04-02T08:47:07.167Z,16.79
2018-04-02T08:49:35.653Z,16.92
2018-04-02T08:52:04.156Z,16.96
2018-04-02T08:54:32.682Z,16.99
2018-04-02T08:57:01.169Z,16.83
2018-04-02T08:59:29.728Z,16.66
2018-04-02T09:01:58.229Z,16.87
2018-04-02T09:04:26.730Z,17.00
2018-04-02T09:06:55.185Z,17.07
2018-04-02T09:09:23.734Z,17.24
2018-04-02T09:11:52.181Z,17.20
2018-04-02T09:14:20.670Z,17.34
2018-04-02T09:16:49.126Z,17.24
2018-04-02T09:19:17.625Z,17.29
2018-04-02T09:21:46.088Z,17.32
2018-04-02T09:24:14.599Z,17.27
2018-04-02T09:26:43.096Z,17.28
2018-04-02T09:29:11.560Z,17.35
2018-04-02T09:31:40.074Z,17.23
2018-04-02T09:34:08.611Z,17.40
2018-04-02T09:36:37.186Z,17.47
2018-04-02T09:39:05.704Z,17.31
2018-04-02T09:41:34.201Z,17.34
2018-04-02T09:44:02.703Z,17.23
2018-04-02T09:46:31.206Z,17.54
2018-04-02T09:48:59.670Z,17.33
2018-04-02T09:51:28.159Z,17.00
2018-04-02T09:53:56.609Z,17.14
2018-04-02T09:56:25.190Z,17.08
2018-04-02T09:58:53.653Z,17.11
2018-04-02T10:01:22.184Z,17.39
2018-04-02T10:03:55.502Z,17.38
2018-04-02T10:06:23.985Z,17.32
2018-04-02T10:08:52.487Z,17.29
2018-04-02T10:11:20.952Z,17.29
2018-04-02T10:13:49.466Z,17.51
2018-04-02T10:16:17.927Z,17.64
2018-04-02T10:18:46.430Z,17.62
2018-04-02T10:21:14.970Z,17.69
2018-04-02T10:23:43.418Z,17.47
2018-04-02T10:26:11.959Z,17.53
2018-04-02T10:28:40.414Z,17.58
2018-04-02T10:31:08.870Z,17.78
2018-04-02T10:33:37.362Z,17.87
2018-04-02T10:36:05.856Z,17.92
2018-04-02T10:38:34.377Z,17.87
2018-04-02T10:41:02.839Z,17.81
2018-04-02T10:43:31.315Z,17.97
2018-04-02T10:45:59.774Z,18.03
2018-04-02T10:48:28.285Z,17.95
2018-04-02T10:50:56.752Z,18.00
2018-04-02T10:53:25.187Z,17.82
2018-04-02T10:55:53.683Z,17.99
2018-04-02T10:58:22.141Z,18.01
2018-04-02T11:00:50.671Z,17.99
2018-04-02T11:03:19.166Z,18.05
2018-04-02T11:05:47.708Z,18.03
2018-04-02T11:08:16.135Z,17.84
2018-04-02T11:10:44.647Z,17.77
2018-04-02T11:13:13.142Z,17.79
2018-04-02T11:15:41.639Z,17.68
2018-04-02T11:18:10.097Z,17.71
2018-04-02T11:20:38.594Z,17.71
2018-04-02T11:23:07.090Z,17.73
2018-04-02T11:25:35.594Z,17.78
2018-04-02T11:28:04.099Z,17.78
2018-04-02T11:30:32.581Z,17.64
2018-04-02T11:33:01.073Z,17.51
2018-04-02T11:35:29.534Z,17.66
2018-04-02T11:37:58.082Z,17.77
2018-04-02T11:40:26.589Z,18.00
2018-04-02T11:42:55.222Z,17.99
2018-04-02T11:45:24.002Z,18.04
2018-04-02T11:47:52.455Z,18.00
2018-04-02T11:50:20.966Z,17.95
2018-04-02T11:52:49.458Z,17.75
2018-04-02T11:55:18.144Z,17.82
2018-04-02T11:57:46.791Z,17.77
2018-04-02T12:00:15.248Z,17.75
2018-04-02T12:02:43.741Z,17.85
2018-04-02T12:05:12.211Z,17.80
2018-04-02T12:07:40.699Z,17.52
2018-04-02T12:10:09.210Z,17.55
2018-04-02T12:12:37.670Z,17.53
2018-04-02T12:15:06.183Z,17.44
2018-04-02T12:17:34.644Z,16.90
2018-04-02T12:20:03.163Z,17.53
2018-04-02T12:22:31.678Z,17.60
2018-04-02T12:25:00.194Z,17.59
2018-04-02T12:27:28.657Z,17.51
2018-04-02T12:29:57.147Z,17.64
2018-04-02T12:32:25.634Z,17.85
2018-04-02T12:34:54.090Z,17.71
2018-04-02T12:37:22.581Z,17.65
2018-04-02T12:39:51.046Z,17.63
2018-04-02T12:42:19.491Z,17.68
2018-04-02T12:44:47.985Z,17.90
2018-04-02T12:47:16.530Z,18.05
2018-04-02T12:49:44.979Z,18.08
2018-04-02T12:52:13.431Z,18.25
2018-04-02T12:54:42.032Z,18.22
2018-04-02T12:57:10.538Z,18.19
2018-04-02T12:59:39.084Z,18.18
2018-04-02T13:02:07.564Z,18.24
2018-04-02T13:04:36.037Z,18.23
2018-04-02T13:07:04.562Z,18.17
2018-04-02T13:09:33.069Z,18.38
2018-04-02T13:12:01.513Z,18.56
2018-04-02T13:14:30.028Z,18.58
2018-04-02T13:16:58.481Z,18.39
2018-04-02T13:19:26.953Z,18.58
2018-04-02T13:21:55.449Z,18.70
2018-04-02T13:24:23.914Z,18.70
2018-04-02T13:26:52.414Z,18.83
2018-04-02T13:29:20.879Z,18.57
2018-04-02T13:31:49.366Z,18.77
2018-04-02T13:34:29.202Z,18.79
2018-04-02T13:36:57.686Z,18.79
2018-04-02T13:39:26.134Z,18.72
2018-04-02T13:41:54.698Z,18.82
2018-04-02T13:44:23.132Z,18.54
2018-04-02T13:46:51.638Z,18.64
2018-04-02T13:49:20.134Z,18.59
2018-04-02T13:51:48.667Z,18.61
2018-04-02T13:54:17.222Z,18.52
2018-04-02T13:56:45.680Z,18.50
2018-04-02T13:59:14.175Z,18.73
2018-04-02T14:01:42.625Z,18.90
2018-04-02T14:04:11.117Z,18.80
2018-04-02T14:06:39.622Z,18.79
2018-04-02T14:09:08.059Z,18.71
2018-04-02T14:11:36.557Z,18.60
2018-04-02T14:14:05.009Z,18.43
2018-04-02T14:16:33.558Z,18.49
2018-04-02T14:19:02.042Z,18.53
2018-04-02T14:21:30.541Z,18.53
2018-04-02T14:23:59.006Z,18.32
2018-04-02T14:26:27.487Z,18.17
2018-04-02T14:28:56.006Z,18.19
2018-04-02T14:31:24.485Z,18.21
2018-04-02T14:33:52.989Z,18.28
2018-04-02T14:36:21.526Z,18.36
2018-04-02T14:38:50.007Z,18.14
2018-04-02T14:41:18.502Z,18.14
2018-04-02T14:43:46.958Z,17.99
2018-04-02T14:46:15.464Z,17.82
2018-04-02T14:48:43.970Z,18.01
2018-04-02T14:51:12.429Z,17.82
2018-04-02T14:53:41.000Z,18.09
2018-04-02T14:56:09.488Z,18.11
2018-04-02T14:58:37.970Z,17.85
2018-04-02T15:01:06.470Z,18.02
2018-04-02T15:03:34.926Z,18.09
2018-04-02T15:06:03.621Z,18.20
2018-04-02T15:08:32.069Z,18.13
2018-04-02T15:11:00.579Z,18.16
2018-04-02T15:13:29.014Z,18.16
2018-04-02T15:15:57.497Z,18.11
2018-04-02T15:18:25.986Z,18.12
2018-04-02T15:20:54.488Z,17.95
2018-04-02T15:23:22.978Z,17.92
2018-04-02T15:25:51.706Z,17.79
2018-04-02T15:28:20.195Z,17.86
2018-04-02T15:30:48.675Z,17.75
2018-04-02T15:33:17.162Z,17.82
2018-04-02T15:35:45.618Z,17.80
2018-04-02T15:38:14.125Z,17.67
2018-04-02T15:40:43.437Z,17.69
2018-04-02T15:43:11.885Z,17.64
2018-04-02T15:45:40.376Z,17.60
2018-04-02T15:48:08.834Z,17.54
2018-04-02T15:50:37.301Z,17.37
2018-04-02T15:53:05.755Z,17.30
2018-04-02T15:55:34.256Z,17.39
2018-04-02T15:58:02.727Z,17.39
2018-04-02T16:00:31.228Z,17.28
2018-04-02T16:02:59.717Z,17.18
2018-04-02T16:05:28.174Z,17.09
2018-04-02T16:07:56.613Z,17.11
2018-04-02T16:10:25.058Z,17.12
2018-04-02T16:12:53.555Z,17.06
2018-04-02T16:15:22.075Z,16.94
2018-04-02T16:17:50.570Z,16.87
2018-04-02T16:20:19.014Z,16.76
2018-04-02T16:22:47.501Z,16.89
2018-04-02T16:25:15.985Z,16.72
2018-04-02T16:27:44.481Z,16.62
2018-04-02T16:30:12.970Z,16.59
2018-04-02T16:32:41.424Z,16.64
2018-04-02T16:35:09.914Z,16.62
2018-04-02T16:37:38.393Z,16.56
2018-04-02T16:40:06.850Z,16.45
2018-04-02T16:42:35.373Z,16.30
2018-04-02T16:45:03.896Z,16.22
2018-04-02T16:47:32.393Z,16.18
2018-04-02T16:50:00.882Z,16.16
2018-04-02T16:52:29.385Z,16.17
2018-04-02T16:54:57.898Z,16.07
2018-04-02T16:57:26.395Z,16.10
2018-04-02T16:59:54.920Z,16.06
2018-04-02T17:02:23.358Z,15.96
2018-04-02T17:04:51.865Z,15.90
2018-04-02T17:07:20.330Z,15.80
2018-04-02T17:09:48.809Z,15.70
2018-04-02T17:12:17.299Z,15.68
2018-04-02T17:14:45.769Z,15.65
2018-04-02T17:17:14.221Z,15.61
2018-04-02T17:19:42.685Z,15.63
2018-04-02T17:22:11.195Z,15.56
2018-04-02T17:24:39.655Z,15.49
2018-04-02T17:27:08.189Z,15.41
2018-04-02T17:29:36.706Z,15.39
2018-04-02T17:32:05.157Z,15.28
2018-04-02T17:34:33.638Z,15.34
2018-04-02T17:37:02.131Z,15.29
2018-04-02T17:39:30.618Z,15.23
2018-04-02T17:41:59.109Z,15.14
2018-04-02T17:44:27.561Z,15.16
2018-04-02T17:46:56.055Z,15.16
2018-04-02T17:49:24.514Z,15.09
2018-04-02T17:51:53.037Z,15.18
2018-04-02T17:54:21.526Z,15.08
2018-04-02T17:56:50.015Z,14.96
2018-04-02T17:59:18.513Z,15.07
2018-04-02T18:01:46.958Z,14.99
2018-04-02T18:04:15.442Z,14.99
2018-04-02T18:06:43.898Z,14.97
2018-04-02T18:09:12.387Z,14.86
2018-04-02T18:11:40.887Z,14.81
2018-04-02T18:14:09.418Z,14.67
2018-04-02T18:16:37.922Z,14.50
2018-04-02T18:19:06.370Z,14.45
2018-04-02T18:21:34.852Z,14.43
2018-04-02T18:24:03.359Z,14.35
2018-04-02T18:26:31.890Z,14.34
2018-04-02T18:29:00.350Z,14.28
2018-04-02T18:31:28.794Z,14.21
2018-04-02T18:33:57.285Z,14.18
2018-04-02T18:36:25.745Z,14.04
2018-04-02T18:38:54.241Z,14.02
2018-04-02T18:41:22.714Z,13.91
2018-04-02T18:43:51.173Z,13.92
2018-04-02T18:46:19.666Z,13.73
2018-04-02T18:48:48.172Z,13.81
2018-04-02T18:51:16.637Z,13.66
2018-04-02T18:53:45.090Z,13.57
2018-04-02T18:56:13.582Z,13.48
2018-04-02T18:58:42.047Z,13.58
2018-04-02T19:01:10.542Z,13.54
2018-04-02T19:03:39.038Z,13.44
2018-04-02T19:06:07.532Z,13.35
2018-04-02T19:08:36.111Z,13.43
2018-04-02T19:11:04.582Z,13.37
2018-04-02T19:13:33.059Z,13.41
2018-04-02T19:16:01.562Z,13.37
2018-04-02T19:18:30.022Z,13.31
2018-04-02T19:20:58.481Z,13.32
2018-04-02T19:23:26.978Z,13.31
2018-04-02T19:25:55.453Z,13.26
2018-04-02T19:28:23.918Z,13.19
2018-04-02T19:30:52.428Z,13.06
2018-04-02T19:33:20.949Z,13.32
2018-04-02T19:35:49.407Z,13.54
2018-04-02T19:38:17.901Z,13.52
2018-04-02T19:40:46.414Z,13.60
2018-04-02T19:43:14.870Z,13.50
2018-04-02T19:45:43.375Z,13.48
2018-04-02T19:48:11.832Z,13.42
2018-04-02T19:50:40.322Z,13.42
2018-04-02T19:53:08.819Z,13.34
2018-04-02T19:55:37.287Z,13.20
2018-04-02T19:58:05.814Z,13.15
2018-04-02T20:00:34.295Z,13.22
2018-04-02T20:03:02.808Z,13.20
2018-04-02T20:05:31.283Z,13.18
2018-04-02T20:07:59.757Z,13.12
2018-04-02T20:10:28.275Z,12.99
2018-04-02T20:12:56.738Z,13.01
2018-04-02T20:15:25.194Z,12.94
2018-04-02T20:17:53.689Z,12.90
2018-04-02T20:20:22.209Z,12.94
2018-04-02T20:22:50.735Z,12.97
2018-04-02T20:25:19.189Z,12.90
2018-04-02T20:27:47.663Z,12.91
2018-04-02T20:30:16.164Z,12.93
2018-04-02T20:32:44.630Z,12.90
2018-04-02T20:35:13.126Z,12.86
2018-04-02T20:37:41.618Z,12.86
2018-04-02T20:40:10.068Z,12.79
2018-04-02T20:42:38.569Z,12.76
2018-04-02T20:45:07.022Z,12.79
2018-04-02T20:47:35.491Z,12.83
2018-04-02T20:50:04.013Z,12.77
2018-04-02T20:52:32.526Z,12.71
2018-04-02T20:55:01.021Z,12.72
2018-04-02T20:57:29.484Z,12.66
2018-04-02T20:59:57.982Z,12.56
2018-04-02T21:02:26.442Z,12.45
2018-04-02T21:04:54.936Z,12.39
2018-04-02T21:07:23.394Z,12.31
2018-04-02T21:09:51.899Z,12.33
2018-04-02T21:12:20.384Z,12.26
2018-04-02T21:14:48.882Z,12.20
2018-04-02T21:17:17.362Z,12.16
2018-04-02T21:19:45.898Z,12.12
2018-04-02T21:22:14.369Z,12.07
2018-04-02T21:24:42.897Z,12.06
2018-04-02T21:27:11.361Z,12.01
2018-04-02T21:29:39.877Z,11.91
2018-04-02T21:32:08.345Z,11.82
2018-04-02T21:34:36.803Z,11.74
2018-04-02T21:37:05.258Z,11.66
2018-04-02T21:39:33.716Z,11.59
2018-04-02T21:42:02.246Z,11.50
2018-04-02T21:44:30.760Z,11.43
2018-04-02T21:46:59.222Z,11.34
2018-04-02T21:49:27.722Z,11.27
2018-04-02T21:51:56.234Z,11.22
2018-04-02T21:54:24.729Z,11.13
2018-04-02T21:56:53.260Z,11.02
2018-04-02T21:59:21.756Z,10.94
2018-04-02T22:01:50.254Z,10.78
2018-04-02T22:04:18.754Z,10.67
2018-04-02T22:06:58.861Z,10.48
2018-04-02T22:09:27.393Z,10.48
2018-04-02T22:11:55.854Z,10.39
2018-04-02T22:14:24.362Z,10.48
2018-04-02T22:16:52.827Z,10.46
2018-04-02T22:19:21.301Z,10.36
2018-04-02T22:21:49.808Z,10.41
2018-04-02T22:24:18.273Z,10.37
2018-04-02T22:26:46.781Z,10.36
2018-04-02T22:29:15.241Z,10.28
2018-04-02T22:31:43.709Z,10.34
2018-04-02T22:34:12.202Z,10.32
2018-04-02T22:36:40.821Z,10.34
2018-04-02T22:39:09.306Z,10.34
2018-04-02T22:41:37.781Z,10.33
2018-04-02T22:44:06.286Z,10.27
2018-04-02T22:46:34.785Z,10.19
2018-04-02T22:49:03.289Z,10.20
2018-04-02T22:51:31.805Z,10.13
2018-04-02T22:54:00.276Z,10.06
2018-04-02T22:56:28.777Z,9.98
2018-04-02T22:58:57.302Z,9.90
2018-04-02T23:01:25.797Z,9.77
2018-04-02T23:03:54.291Z,9.76
2018-04-02T23:06:22.798Z,9.70
2018-04-02T23:08:51.253Z,9.67
2018-04-02T23:11:19.719Z,9.64
2018-04-02T23:13:48.218Z,9.59
2018-04-02T23:16:16.687Z,9.57
2018-04-02T23:18:45.186Z,9.37
2018-04-02T23:21:13.638Z,9.44
2018-04-02T23:23:42.139Z,9.47
2018-04-02T23:26:10.637Z,9.41
2018-04-02T23:28:39.127Z,9.39
2018-04-02T23:31:07.620Z,9.37
2018-04-02T23:33:36.150Z,9.33
2018-04-02T23:36:04.663Z,9.30
2018-04-02T23:38:33.150Z,9.20
2018-04-02T23:41:01.638Z,9.24
2018-04-02T23:43:30.097Z,9.14
2018-04-02T23:45:58.598Z,9.14
2018-04-02T23:48:27.114Z,9.10
2018-04-02T23:50:55.609Z,9.06
2018-04-02T23:53:24.065Z,8.93
2018-04-02T23:55:52.568Z,8.93
2018-04-02T23:58:21.020Z,8.90
